sensor_id;sensor_type;location;lat;lon;timestamp;pressure;altitude;pressure_sealevel;temperature;humidity
58739;BME280;44512;53.046;18.604;2023-07-09T00:06:07;102189.13;;;22.95;40.53
58739;BME280;44512;53.046;18.604;2023-07-09T00:16:34;102182.13;;;22.75;40.91
58739;BME280;44512;53.046;18.604;2023-07-09T00:27:04;102185.05;;;22.57;41.25
58739;BME280;44512;53.046;18.604;2023-07-09T00:37:30;102185.83;;;22.41;41.72
58739;BME280;44512;53.046;18.604;2023-07-09T00:48:06;102178.58;;;22.23;42.21
58739;BME280;44512;53.046;18.604;2023-07-09T00:58:28;102172.91;;;22.06;42.73
58739;BME280;44512;53.046;18.604;2023-07-09T01:08:55;102178.09;;;21.91;43.21
58739;BME280;44512;53.046;18.604;2023-07-09T01:19:27;102182.19;;;21.76;43.63
58739;BME280;44512;53.046;18.604;2023-07-09T01:29:54;102177.99;;;21.62;43.94
58739;BME280;44512;53.046;18.604;2023-07-09T01:40:22;102194.73;;;21.49;44.33
58739;BME280;44512;53.046;18.604;2023-07-09T01:50:49;102189.09;;;21.32;44.73
58739;BME280;44512;53.046;18.604;2023-07-09T02:01:17;102197.38;;;21.14;45.25
58739;BME280;44512;53.046;18.604;2023-07-09T02:11:45;102196.63;;;20.95;45.65
58739;BME280;44512;53.046;18.604;2023-07-09T02:22:14;102217.59;;;20.77;46.05
58739;BME280;44512;53.046;18.604;2023-07-09T02:32:42;102221.62;;;20.63;46.37
58739;BME280;44512;53.046;18.604;2023-07-09T02:43:10;102229.19;;;20.49;46.67
58739;BME280;44512;53.046;18.604;2023-07-09T02:53:39;102224.66;;;20.37;46.95
58739;BME280;44512;53.046;18.604;2023-07-09T03:04:07;102232.80;;;20.25;47.23
58739;BME280;44512;53.046;18.604;2023-07-09T03:14:36;102238.83;;;20.15;47.60
58739;BME280;44512;53.046;18.604;2023-07-09T03:25:05;102245.71;;;20.06;48.03
58739;BME280;44512;53.046;18.604;2023-07-09T03:35:32;102242.17;;;19.99;48.49
58739;BME280;44512;53.046;18.604;2023-07-09T03:46:01;102242.84;;;19.94;48.80
58739;BME280;44512;53.046;18.604;2023-07-09T03:56:29;102277.13;;;19.92;49.14
58739;BME280;44512;53.046;18.604;2023-07-09T04:06:57;102266.57;;;19.89;49.41
58739;BME280;44512;53.046;18.604;2023-07-09T04:17:26;102265.97;;;19.87;49.75
58739;BME280;44512;53.046;18.604;2023-07-09T04:27:54;102275.65;;;19.89;50.06
58739;BME280;44512;53.046;18.604;2023-07-09T04:38:22;102264.83;;;19.94;50.49
58739;BME280;44512;53.046;18.604;2023-07-09T04:48:51;102270.29;;;20.01;50.99
58739;BME280;44512;53.046;18.604;2023-07-09T04:59:19;102268.30;;;20.08;51.32
58739;BME280;44512;53.046;18.604;2023-07-09T05:09:47;102282.36;;;20.18;51.42
58739;BME280;44512;53.046;18.604;2023-07-09T05:20:16;102293.29;;;20.25;51.34
58739;BME280;44512;53.046;18.604;2023-07-09T05:30:44;102291.49;;;20.37;51.38
58739;BME280;44512;53.046;18.604;2023-07-09T05:41:13;102291.84;;;20.47;51.12
58739;BME280;44512;53.046;18.604;2023-07-09T05:51:41;102289.84;;;20.54;50.73
58739;BME280;44512;53.046;18.604;2023-07-09T06:02:13;102296.49;;;20.65;50.19
58739;BME280;44512;53.046;18.604;2023-07-09T06:12:37;102291.73;;;20.72;49.33
58739;BME280;44512;53.046;18.604;2023-07-09T06:23:06;102279.35;;;20.81;49.16
58739;BME280;44512;53.046;18.604;2023-07-09T06:33:34;102266.73;;;20.92;48.77
58739;BME280;44512;53.046;18.604;2023-07-09T06:44:02;102282.69;;;21.02;47.83
58739;BME280;44512;53.046;18.604;2023-07-09T06:54:31;102286.80;;;21.11;47.06
58739;BME280;44512;53.046;18.604;2023-07-09T07:04:59;102278.59;;;21.23;46.50
58739;BME280;44512;53.046;18.604;2023-07-09T07:15:27;102282.73;;;21.32;45.55
58739;BME280;44512;53.046;18.604;2023-07-09T07:25:56;102295.93;;;21.42;44.77
58739;BME280;44512;53.046;18.604;2023-07-09T07:36:24;102280.51;;;21.52;44.73
58739;BME280;44512;53.046;18.604;2023-07-09T07:46:52;102278.84;;;21.63;44.67
58739;BME280;44512;53.046;18.604;2023-07-09T07:57:23;102277.44;;;21.72;43.71
58739;BME280;44512;53.046;18.604;2023-07-09T08:07:49;102281.53;;;21.81;42.89
58739;BME280;44512;53.046;18.604;2023-07-09T08:18:17;102288.13;;;21.92;42.47
58739;BME280;44512;53.046;18.604;2023-07-09T08:28:46;102276.48;;;22.02;41.97
58739;BME280;44512;53.046;18.604;2023-07-09T08:39:14;102271.23;;;22.12;40.99
58739;BME280;44512;53.046;18.604;2023-07-09T08:49:53;102271.47;;;22.22;40.28
58739;BME280;44512;53.046;18.604;2023-07-09T09:10:44;102264.49;;;22.43;38.98
58739;BME280;44512;53.046;18.604;2023-07-09T09:31:36;102263.87;;;22.65;38.79
58739;BME280;44512;53.046;18.604;2023-07-09T09:42:10;102269.35;;;22.76;37.87
58739;BME280;44512;53.046;18.604;2023-07-09T09:52:33;102253.00;;;22.86;37.46
58739;BME280;44512;53.046;18.604;2023-07-09T10:03:03;102234.48;;;22.99;37.17
58739;BME280;44512;53.046;18.604;2023-07-09T10:13:34;102238.05;;;23.11;36.96
58739;BME280;44512;53.046;18.604;2023-07-09T10:24:07;102243.50;;;23.23;36.54
58739;BME280;44512;53.046;18.604;2023-07-09T10:34:34;102250.04;;;23.33;35.48
58739;BME280;44512;53.046;18.604;2023-07-09T10:45:02;102251.41;;;23.48;35.40
58739;BME280;44512;53.046;18.604;2023-07-09T10:55:33;102252.42;;;23.58;35.33
58739;BME280;44512;53.046;18.604;2023-07-09T11:05:51;102247.93;;;23.69;35.29
58739;BME280;44512;53.046;18.604;2023-07-09T11:16:31;102245.07;;;23.81;35.09
58739;BME280;44512;53.046;18.604;2023-07-09T11:26:49;102243.37;;;23.97;35.02
58739;BME280;44512;53.046;18.604;2023-07-09T11:37:16;102233.63;;;24.11;35.07
58739;BME280;44512;53.046;18.604;2023-07-09T11:47:53;102237.71;;;24.25;34.36
58739;BME280;44512;53.046;18.604;2023-07-09T11:58:14;102231.25;;;24.36;33.92
58739;BME280;44512;53.046;18.604;2023-07-09T12:08:42;102235.55;;;24.49;33.72
58739;BME280;44512;53.046;18.604;2023-07-09T12:19:11;102219.41;;;24.63;33.82
58739;BME280;44512;53.046;18.604;2023-07-09T12:29:37;102214.62;;;24.80;33.85
58739;BME280;44512;53.046;18.604;2023-07-09T12:40:15;102195.98;;;24.98;34.02
58739;BME280;44512;53.046;18.604;2023-07-09T12:50:35;102180.66;;;25.17;33.53
58739;BME280;44512;53.046;18.604;2023-07-09T13:01:14;102175.57;;;25.36;32.61
58739;BME280;44512;53.046;18.604;2023-07-09T13:11:35;102170.98;;;25.52;32.21
58739;BME280;44512;53.046;18.604;2023-07-09T13:21:59;102166.14;;;25.69;32.28
58739;BME280;44512;53.046;18.604;2023-07-09T13:32:28;102170.71;;;25.85;31.86
58739;BME280;44512;53.046;18.604;2023-07-09T13:42:56;102176.88;;;26.03;31.67
58739;BME280;44512;53.046;18.604;2023-07-09T13:53:28;102172.80;;;26.20;30.71
58739;BME280;44512;53.046;18.604;2023-07-09T14:03:55;102167.62;;;26.39;30.03
58739;BME280;44512;53.046;18.604;2023-07-09T14:14:29;102167.17;;;26.58;29.94
58739;BME280;44512;53.046;18.604;2023-07-09T14:24:49;102146.66;;;26.79;29.24
58739;BME280;44512;53.046;18.604;2023-07-09T14:35:22;102141.97;;;27.00;28.71
58739;BME280;44512;53.046;18.604;2023-07-09T14:50:48;102142.00;;;27.36;27.83
58739;BME280;44512;53.046;18.604;2023-07-09T15:01:22;102140.27;;;27.60;27.16
58739;BME280;44512;53.046;18.604;2023-07-09T15:11:53;102137.46;;;27.86;26.43
58739;BME280;44512;53.046;18.604;2023-07-09T15:22:23;102122.60;;;28.16;25.73
58739;BME280;44512;53.046;18.604;2023-07-09T15:32:43;102113.54;;;28.54;25.77
58739;BME280;44512;53.046;18.604;2023-07-09T15:43:13;102118.55;;;28.97;25.55
58739;BME280;44512;53.046;18.604;2023-07-09T15:53:39;102086.73;;;29.32;25.21
58739;BME280;44512;53.046;18.604;2023-07-09T16:04:10;102103.65;;;29.70;24.32
58739;BME280;44512;53.046;18.604;2023-07-09T16:14:39;102104.76;;;29.93;24.16
58739;BME280;44512;53.046;18.604;2023-07-09T16:25:14;102101.97;;;29.93;23.86
58739;BME280;44512;53.046;18.604;2023-07-09T16:35:36;102104.62;;;29.84;23.77
58739;BME280;44512;53.046;18.604;2023-07-09T16:56:37;102099.05;;;30.03;23.85
58739;BME280;44512;53.046;18.604;2023-07-09T17:07:09;102096.95;;;30.19;23.60
58739;BME280;44512;53.046;18.604;2023-07-09T17:17:37;102097.85;;;30.33;23.74
58739;BME280;44512;53.046;18.604;2023-07-09T17:38:40;102087.88;;;30.27;24.38
58739;BME280;44512;53.046;18.604;2023-07-09T17:59:43;102073.84;;;29.89;24.76
58739;BME280;44512;53.046;18.604;2023-07-09T18:10:12;102076.58;;;29.70;25.06
58739;BME280;44512;53.046;18.604;2023-07-09T18:20:41;102067.28;;;29.51;25.68
58739;BME280;44512;53.046;18.604;2023-07-09T18:31:13;102058.24;;;29.35;26.32
58739;BME280;44512;53.046;18.604;2023-07-09T18:41:41;102059.54;;;29.19;26.81
58739;BME280;44512;53.046;18.604;2023-07-09T18:52:15;102062.77;;;29.02;27.15
58739;BME280;44512;53.046;18.604;2023-07-09T19:02:39;102070.97;;;28.83;27.51
58739;BME280;44512;53.046;18.604;2023-07-09T19:13:07;102070.02;;;28.64;27.90
58739;BME280;44512;53.046;18.604;2023-07-09T19:23:34;102077.39;;;28.44;28.12
58739;BME280;44512;53.046;18.604;2023-07-09T19:34:02;102078.59;;;28.28;28.35
58739;BME280;44512;53.046;18.604;2023-07-09T19:44:31;102077.84;;;28.12;28.48
58739;BME280;44512;53.046;18.604;2023-07-09T19:55:04;102094.60;;;27.97;28.73
58739;BME280;44512;53.046;18.604;2023-07-09T20:05:27;102098.82;;;27.79;29.09
58739;BME280;44512;53.046;18.604;2023-07-09T20:15:56;102098.29;;;27.62;29.28
58739;BME280;44512;53.046;18.604;2023-07-09T20:26:24;102106.09;;;27.44;29.55
58739;BME280;44512;53.046;18.604;2023-07-09T20:36:52;102100.31;;;27.25;29.89
58739;BME280;44512;53.046;18.604;2023-07-09T20:47:20;102103.64;;;27.07;30.13
58739;BME280;44512;53.046;18.604;2023-07-09T20:57:49;102123.88;;;26.87;30.39
58739;BME280;44512;53.046;18.604;2023-07-09T21:08:19;102126.09;;;26.70;30.67
58739;BME280;44512;53.046;18.604;2023-07-09T21:18:46;102126.34;;;26.53;30.95
58739;BME280;44512;53.046;18.604;2023-07-09T21:29:14;102129.30;;;26.31;31.28
58739;BME280;44512;53.046;18.604;2023-07-09T21:39:42;102130.09;;;26.21;31.61
58739;BME280;44512;53.046;18.604;2023-07-09T21:50:14;102131.98;;;26.06;31.93
58739;BME280;44512;53.046;18.604;2023-07-09T22:00:39;102137.14;;;25.87;32.26
58739;BME280;44512;53.046;18.604;2023-07-09T22:11:16;102131.16;;;25.68;32.63
58739;BME280;44512;53.046;18.604;2023-07-09T22:21:36;102140.22;;;25.53;32.97
58739;BME280;44512;53.046;18.604;2023-07-09T22:32:05;102144.25;;;25.35;33.32
58739;BME280;44512;53.046;18.604;2023-07-09T22:42:32;102136.34;;;25.17;33.81
58739;BME280;44512;53.046;18.604;2023-07-09T22:53:01;102128.97;;;25.01;34.27
58739;BME280;44512;53.046;18.604;2023-07-09T23:03:37;102127.16;;;24.84;34.61
58739;BME280;44512;53.046;18.604;2023-07-09T23:13:57;102111.50;;;24.68;35.07
58739;BME280;44512;53.046;18.604;2023-07-09T23:24:25;102105.80;;;24.53;35.48
58739;BME280;44512;53.046;18.604;2023-07-09T23:34:54;102095.91;;;24.35;35.77
58739;BME280;44512;53.046;18.604;2023-07-09T23:45:23;102098.17;;;24.16;36.03
58739;BME280;44512;53.046;18.604;2023-07-09T23:55:51;102093.20;;;23.96;36.40
